sensor_id;sensor_type;location;lat;lon;timestamp;temperature;humidity
56308;DHT22;42217;50.422;7.210;2022-11-20T00:01:40;0.90;99.90
56308;DHT22;42217;50.422;7.210;2022-11-20T00:04:06;0.90;99.90
56308;DHT22;42217;50.422;7.210;2022-11-20T00:06:32;0.90;99.90
56308;DHT22;42217;50.422;7.210;2022-11-20T00:08:59;0.90;99.90
56308;DHT22;42217;50.422;7.210;2022-11-20T00:11:26;0.90;99.90
56308;DHT22;42217;50.422;7.210;2022-11-20T00:13:55;0.90;99.90
56308;DHT22;42217;50.422;7.210;2022-11-20T00:16:23;0.90;99.90
56308;DHT22;42217;50.422;7.210;2022-11-20T00:18:49;1.00;99.90
56308;DHT22;42217;50.422;7.210;2022-11-20T00:21:20;1.10;99.90
56308;DHT22;42217;50.422;7.210;2022-11-20T00:23:46;1.00;99.90
56308;DHT22;42217;50.422;7.210;2022-11-20T00:26:14;1.10;99.90
56308;DHT22;42217;50.422;7.210;2022-11-20T00:28:41;1.30;99.90
56308;DHT22;42217;50.422;7.210;2022-11-20T00:31:09;1.30;99.90
56308;DHT22;42217;50.422;7.210;2022-11-20T00:33:36;1.50;99.90
56308;DHT22;42217;50.422;7.210;2022-11-20T00:36:03;1.60;99.90
56308;DHT22;42217;50.422;7.210;2022-11-20T00:38:33;1.60;99.90
56308;DHT22;42217;50.422;7.210;2022-11-20T00:41:00;1.50;99.90
56308;DHT22;42217;50.422;7.210;2022-11-20T00:43:26;1.40;99.90
56308;DHT22;42217;50.422;7.210;2022-11-20T00:46:04;1.30;99.90
56308;DHT22;42217;50.422;7.210;2022-11-20T00:48:30;1.20;99.90
56308;DHT22;42217;50.422;7.210;2022-11-20T00:50:56;1.20;99.90
56308;DHT22;42217;50.422;7.210;2022-11-20T00:53:22;1.20;99.90
56308;DHT22;42217;50.422;7.210;2022-11-20T00:55:55;1.30;99.90
56308;DHT22;42217;50.422;7.210;2022-11-20T00:58:22;1.40;99.90
56308;DHT22;42217;50.422;7.210;2022-11-20T01:00:49;1.40;99.90
56308;DHT22;42217;50.422;7.210;2022-11-20T01:03:16;1.50;99.90
56308;DHT22;42217;50.422;7.210;2022-11-20T01:05:42;1.60;99.90
56308;DHT22;42217;50.422;7.210;2022-11-20T01:08:07;1.50;99.90
56308;DHT22;42217;50.422;7.210;2022-11-20T01:10:33;1.60;99.90
56308;DHT22;42217;50.422;7.210;2022-11-20T01:12:59;1.60;99.90
56308;DHT22;42217;50.422;7.210;2022-11-20T01:15:43;1.60;99.90
56308;DHT22;42217;50.422;7.210;2022-11-20T01:18:09;1.60;99.90
56308;DHT22;42217;50.422;7.210;2022-11-20T01:20:35;1.50;99.90
56308;DHT22;42217;50.422;7.210;2022-11-20T01:23:02;1.50;99.90
56308;DHT22;42217;50.422;7.210;2022-11-20T01:25:28;1.40;99.90
56308;DHT22;42217;50.422;7.210;2022-11-20T01:27:54;1.30;99.90
56308;DHT22;42217;50.422;7.210;2022-11-20T01:30:20;1.30;99.90
56308;DHT22;42217;50.422;7.210;2022-11-20T01:32:45;1.30;99.90
56308;DHT22;42217;50.422;7.210;2022-11-20T01:35:11;1.30;99.90
56308;DHT22;42217;50.422;7.210;2022-11-20T01:37:37;1.30;99.90
56308;DHT22;42217;50.422;7.210;2022-11-20T01:40:03;1.40;99.90
56308;DHT22;42217;50.422;7.210;2022-11-20T01:42:28;1.50;99.90
56308;DHT22;42217;50.422;7.210;2022-11-20T01:48:13;1.60;99.90
56308;DHT22;42217;50.422;7.210;2022-11-20T01:50:40;1.50;99.90
56308;DHT22;42217;50.422;7.210;2022-11-20T01:53:09;1.40;99.90
56308;DHT22;42217;50.422;7.210;2022-11-20T01:55:42;1.30;99.90
56308;DHT22;42217;50.422;7.210;2022-11-20T01:58:09;1.30;99.90
56308;DHT22;42217;50.422;7.210;2022-11-20T02:00:35;1.30;99.90
56308;DHT22;42217;50.422;7.210;2022-11-20T02:03:05;1.30;99.90
56308;DHT22;42217;50.422;7.210;2022-11-20T02:05:36;1.10;99.90
56308;DHT22;42217;50.422;7.210;2022-11-20T02:08:05;1.20;99.90
56308;DHT22;42217;50.422;7.210;2022-11-20T02:10:32;1.20;99.90
56308;DHT22;42217;50.422;7.210;2022-11-20T02:12:58;1.20;99.90
56308;DHT22;42217;50.422;7.210;2022-11-20T02:15:43;1.20;99.90
56308;DHT22;42217;50.422;7.210;2022-11-20T02:18:11;1.20;99.90
56308;DHT22;42217;50.422;7.210;2022-11-20T02:20:38;1.30;99.90
56308;DHT22;42217;50.422;7.210;2022-11-20T02:25:55;1.50;99.90
56308;DHT22;42217;50.422;7.210;2022-11-20T02:28:23;1.70;99.90
56308;DHT22;42217;50.422;7.210;2022-11-20T02:30:49;2.00;99.90
56308;DHT22;42217;50.422;7.210;2022-11-20T02:33:15;2.10;99.90
56308;DHT22;42217;50.422;7.210;2022-11-20T02:35:43;2.00;99.90
56308;DHT22;42217;50.422;7.210;2022-11-20T02:38:09;2.00;99.90
56308;DHT22;42217;50.422;7.210;2022-11-20T02:40:35;1.90;99.90
56308;DHT22;42217;50.422;7.210;2022-11-20T02:43:01;1.80;99.90
56308;DHT22;42217;50.422;7.210;2022-11-20T02:45:26;1.80;99.90
56308;DHT22;42217;50.422;7.210;2022-11-20T02:47:52;1.70;99.90
56308;DHT22;42217;50.422;7.210;2022-11-20T02:50:18;1.80;99.90
56308;DHT22;42217;50.422;7.210;2022-11-20T02:52:44;1.90;99.90
56308;DHT22;42217;50.422;7.210;2022-11-20T02:55:10;2.00;99.90
56308;DHT22;42217;50.422;7.210;2022-11-20T02:57:36;2.10;99.90
56308;DHT22;42217;50.422;7.210;2022-11-20T03:00:02;2.10;99.90
56308;DHT22;42217;50.422;7.210;2022-11-20T03:02:31;2.10;99.90
56308;DHT22;42217;50.422;7.210;2022-11-20T03:04:57;2.00;99.90
56308;DHT22;42217;50.422;7.210;2022-11-20T03:07:22;1.90;99.90
56308;DHT22;42217;50.422;7.210;2022-11-20T03:09:48;1.80;99.90
56308;DHT22;42217;50.422;7.210;2022-11-20T03:12:14;1.80;99.90
56308;DHT22;42217;50.422;7.210;2022-11-20T03:14:39;1.80;99.90
56308;DHT22;42217;50.422;7.210;2022-11-20T03:17:05;1.70;99.90
56308;DHT22;42217;50.422;7.210;2022-11-20T03:19:31;1.70;99.90
56308;DHT22;42217;50.422;7.210;2022-11-20T03:21:57;1.90;99.90
56308;DHT22;42217;50.422;7.210;2022-11-20T03:24:22;1.90;99.90
56308;DHT22;42217;50.422;7.210;2022-11-20T03:26:48;1.90;99.90
56308;DHT22;42217;50.422;7.210;2022-11-20T03:29:14;2.00;99.90
56308;DHT22;42217;50.422;7.210;2022-11-20T03:31:40;2.00;99.90
56308;DHT22;42217;50.422;7.210;2022-11-20T03:34:07;2.10;99.90
56308;DHT22;42217;50.422;7.210;2022-11-20T03:36:33;2.00;99.90
56308;DHT22;42217;50.422;7.210;2022-11-20T03:38:59;1.90;99.90
56308;DHT22;42217;50.422;7.210;2022-11-20T03:41:29;2.00;99.90
56308;DHT22;42217;50.422;7.210;2022-11-20T03:44:00;2.00;99.90
56308;DHT22;42217;50.422;7.210;2022-11-20T03:46:27;1.90;99.90
56308;DHT22;42217;50.422;7.210;2022-11-20T03:48:53;1.90;99.90
56308;DHT22;42217;50.422;7.210;2022-11-20T03:53:46;1.80;99.90
56308;DHT22;42217;50.422;7.210;2022-11-20T03:56:13;1.80;99.90
56308;DHT22;42217;50.422;7.210;2022-11-20T03:58:40;1.90;99.90
56308;DHT22;42217;50.422;7.210;2022-11-20T04:01:10;1.90;99.90
56308;DHT22;42217;50.422;7.210;2022-11-20T04:03:37;1.90;99.90
56308;DHT22;42217;50.422;7.210;2022-11-20T04:06:06;2.20;99.90
56308;DHT22;42217;50.422;7.210;2022-11-20T04:08:32;2.30;99.90
56308;DHT22;42217;50.422;7.210;2022-11-20T04:13:33;2.40;99.90
56308;DHT22;42217;50.422;7.210;2022-11-20T04:15:59;2.30;99.90
56308;DHT22;42217;50.422;7.210;2022-11-20T04:18:25;2.20;99.90
56308;DHT22;42217;50.422;7.210;2022-11-20T04:20:50;2.10;99.90
56308;DHT22;42217;50.422;7.210;2022-11-20T04:23:16;1.90;99.90
56308;DHT22;42217;50.422;7.210;2022-11-20T04:25:42;1.80;99.90
56308;DHT22;42217;50.422;7.210;2022-11-20T04:28:07;1.80;99.90
56308;DHT22;42217;50.422;7.210;2022-11-20T04:30:33;1.70;99.90
56308;DHT22;42217;50.422;7.210;2022-11-20T04:32:58;1.70;99.90
56308;DHT22;42217;50.422;7.210;2022-11-20T04:35:24;1.70;99.90
56308;DHT22;42217;50.422;7.210;2022-11-20T04:37:53;1.80;99.90
56308;DHT22;42217;50.422;7.210;2022-11-20T04:40:18;1.90;99.90
56308;DHT22;42217;50.422;7.210;2022-11-20T04:42:44;1.90;99.90
56308;DHT22;42217;50.422;7.210;2022-11-20T04:45:10;1.90;99.90
56308;DHT22;42217;50.422;7.210;2022-11-20T04:47:35;1.80;99.90
56308;DHT22;42217;50.422;7.210;2022-11-20T04:50:02;1.80;99.90
56308;DHT22;42217;50.422;7.210;2022-11-20T04:52:27;1.70;99.90
56308;DHT22;42217;50.422;7.210;2022-11-20T04:54:53;1.70;99.90
56308;DHT22;42217;50.422;7.210;2022-11-20T04:57:19;1.70;99.90
56308;DHT22;42217;50.422;7.210;2022-11-20T04:59:45;1.60;99.90
56308;DHT22;42217;50.422;7.210;2022-11-20T05:02:11;1.70;99.90
56308;DHT22;42217;50.422;7.210;2022-11-20T05:04:37;1.60;99.90
56308;DHT22;42217;50.422;7.210;2022-11-20T05:07:02;1.70;99.90
56308;DHT22;42217;50.422;7.210;2022-11-20T05:09:28;1.70;99.90
56308;DHT22;42217;50.422;7.210;2022-11-20T05:11:54;1.70;99.90
56308;DHT22;42217;50.422;7.210;2022-11-20T05:14:19;1.70;99.90
56308;DHT22;42217;50.422;7.210;2022-11-20T05:16:45;1.80;99.90
56308;DHT22;42217;50.422;7.210;2022-11-20T05:19:11;1.80;99.90
56308;DHT22;42217;50.422;7.210;2022-11-20T05:21:36;1.80;99.90
56308;DHT22;42217;50.422;7.210;2022-11-20T05:24:02;1.70;99.90
56308;DHT22;42217;50.422;7.210;2022-11-20T05:26:28;1.80;99.90
56308;DHT22;42217;50.422;7.210;2022-11-20T05:28:53;1.80;99.90
56308;DHT22;42217;50.422;7.210;2022-11-20T05:31:22;1.80;99.90
56308;DHT22;42217;50.422;7.210;2022-11-20T05:33:48;1.80;99.90
56308;DHT22;42217;50.422;7.210;2022-11-20T05:36:14;1.90;99.90
56308;DHT22;42217;50.422;7.210;2022-11-20T05:38:41;1.90;99.90
56308;DHT22;42217;50.422;7.210;2022-11-20T05:43:38;2.00;99.90
56308;DHT22;42217;50.422;7.210;2022-11-20T05:46:05;2.10;99.90
56308;DHT22;42217;50.422;7.210;2022-11-20T05:48:32;2.10;99.90
56308;DHT22;42217;50.422;7.210;2022-11-20T05:50:58;2.20;99.90
56308;DHT22;42217;50.422;7.210;2022-11-20T05:53:25;2.20;99.90
56308;DHT22;42217;50.422;7.210;2022-11-20T05:55:59;2.30;99.90
56308;DHT22;42217;50.422;7.210;2022-11-20T05:58:24;2.20;99.90
56308;DHT22;42217;50.422;7.210;2022-11-20T06:00:50;2.20;99.90
56308;DHT22;42217;50.422;7.210;2022-11-20T06:03:16;2.20;99.90
56308;DHT22;42217;50.422;7.210;2022-11-20T06:05:42;2.20;99.90
56308;DHT22;42217;50.422;7.210;2022-11-20T06:08:07;2.20;99.90
56308;DHT22;42217;50.422;7.210;2022-11-20T06:10:33;2.20;99.90
56308;DHT22;42217;50.422;7.210;2022-11-20T06:12:59;2.20;99.90
56308;DHT22;42217;50.422;7.210;2022-11-20T06:15:24;2.20;99.90
56308;DHT22;42217;50.422;7.210;2022-11-20T06:17:54;2.20;99.90
56308;DHT22;42217;50.422;7.210;2022-11-20T06:20:21;2.10;99.90
56308;DHT22;42217;50.422;7.210;2022-11-20T06:22:47;2.10;99.90
56308;DHT22;42217;50.422;7.210;2022-11-20T06:25:12;2.10;99.90
56308;DHT22;42217;50.422;7.210;2022-11-20T06:27:38;2.10;99.90
56308;DHT22;42217;50.422;7.210;2022-11-20T06:30:04;2.10;99.90
56308;DHT22;42217;50.422;7.210;2022-11-20T06:32:30;2.20;99.90
56308;DHT22;42217;50.422;7.210;2022-11-20T06:34:56;2.20;99.90
56308;DHT22;42217;50.422;7.210;2022-11-20T06:37:21;2.30;99.90
56308;DHT22;42217;50.422;7.210;2022-11-20T06:39:47;2.40;99.90
56308;DHT22;42217;50.422;7.210;2022-11-20T06:42:13;2.30;99.90
56308;DHT22;42217;50.422;7.210;2022-11-20T06:44:38;2.30;99.90
56308;DHT22;42217;50.422;7.210;2022-11-20T06:47:04;2.30;99.90
56308;DHT22;42217;50.422;7.210;2022-11-20T06:49:32;2.30;99.90
56308;DHT22;42217;50.422;7.210;2022-11-20T06:51:59;2.30;99.90
56308;DHT22;42217;50.422;7.210;2022-11-20T06:54:25;2.30;99.90
56308;DHT22;42217;50.422;7.210;2022-11-20T06:56:53;2.30;99.90
56308;DHT22;42217;50.422;7.210;2022-11-20T06:59:18;2.30;99.90
56308;DHT22;42217;50.422;7.210;2022-11-20T07:01:44;2.40;99.90
56308;DHT22;42217;50.422;7.210;2022-11-20T07:04:10;2.40;99.90
56308;DHT22;42217;50.422;7.210;2022-11-20T07:06:35;2.50;99.90
56308;DHT22;42217;50.422;7.210;2022-11-20T07:09:01;2.50;99.90
56308;DHT22;42217;50.422;7.210;2022-11-20T07:11:27;2.60;99.90
56308;DHT22;42217;50.422;7.210;2022-11-20T07:13:53;2.60;99.90
56308;DHT22;42217;50.422;7.210;2022-11-20T07:16:18;2.60;99.90
56308;DHT22;42217;50.422;7.210;2022-11-20T07:18:44;2.70;99.90
56308;DHT22;42217;50.422;7.210;2022-11-20T07:21:10;2.60;99.90
56308;DHT22;42217;50.422;7.210;2022-11-20T07:23:36;2.60;99.90
56308;DHT22;42217;50.422;7.210;2022-11-20T07:26:09;2.60;99.90
56308;DHT22;42217;50.422;7.210;2022-11-20T07:28:36;2.60;99.90
56308;DHT22;42217;50.422;7.210;2022-11-20T07:31:02;2.60;99.90
56308;DHT22;42217;50.422;7.210;2022-11-20T07:33:28;2.60;99.90
56308;DHT22;42217;50.422;7.210;2022-11-20T07:35:54;2.70;99.90
56308;DHT22;42217;50.422;7.210;2022-11-20T07:38:20;2.60;99.90
56308;DHT22;42217;50.422;7.210;2022-11-20T07:40:45;2.70;99.90
56308;DHT22;42217;50.422;7.210;2022-11-20T07:43:11;2.70;99.90
56308;DHT22;42217;50.422;7.210;2022-11-20T07:45:37;2.80;99.90
56308;DHT22;42217;50.422;7.210;2022-11-20T07:48:03;2.80;99.90
56308;DHT22;42217;50.422;7.210;2022-11-20T07:50:28;2.80;99.90
56308;DHT22;42217;50.422;7.210;2022-11-20T07:53:04;2.80;99.90
56308;DHT22;42217;50.422;7.210;2022-11-20T07:55:30;2.80;99.90
56308;DHT22;42217;50.422;7.210;2022-11-20T07:57:56;2.80;99.90
56308;DHT22;42217;50.422;7.210;2022-11-20T08:00:26;2.70;99.90
56308;DHT22;42217;50.422;7.210;2022-11-20T08:02:52;2.80;99.90
56308;DHT22;42217;50.422;7.210;2022-11-20T08:05:17;2.90;99.90
56308;DHT22;42217;50.422;7.210;2022-11-20T08:07:43;2.90;99.90
56308;DHT22;42217;50.422;7.210;2022-11-20T08:10:11;3.00;99.90
56308;DHT22;42217;50.422;7.210;2022-11-20T08:12:47;3.00;99.90
56308;DHT22;42217;50.422;7.210;2022-11-20T08:15:32;3.00;99.90
56308;DHT22;42217;50.422;7.210;2022-11-20T08:18:24;3.00;99.90
56308;DHT22;42217;50.422;7.210;2022-11-20T08:20:50;3.00;99.90
56308;DHT22;42217;50.422;7.210;2022-11-20T08:23:15;3.00;99.90
56308;DHT22;42217;50.422;7.210;2022-11-20T08:25:41;3.00;99.90
56308;DHT22;42217;50.422;7.210;2022-11-20T08:28:09;3.00;99.90
56308;DHT22;42217;50.422;7.210;2022-11-20T08:30:36;2.90;99.90
56308;DHT22;42217;50.422;7.210;2022-11-20T08:33:05;3.00;99.90
56308;DHT22;42217;50.422;7.210;2022-11-20T08:35:37;3.00;99.90
56308;DHT22;42217;50.422;7.210;2022-11-20T08:38:07;3.00;99.90
56308;DHT22;42217;50.422;7.210;2022-11-20T08:40:33;3.00;99.90
56308;DHT22;42217;50.422;7.210;2022-11-20T08:42:59;2.90;99.90
56308;DHT22;42217;50.422;7.210;2022-11-20T08:45:25;2.90;99.90
56308;DHT22;42217;50.422;7.210;2022-11-20T08:47:50;3.00;99.90
56308;DHT22;42217;50.422;7.210;2022-11-20T08:50:16;3.00;99.90
56308;DHT22;42217;50.422;7.210;2022-11-20T08:52:42;3.10;99.90
56308;DHT22;42217;50.422;7.210;2022-11-20T08:55:08;3.10;99.90
56308;DHT22;42217;50.422;7.210;2022-11-20T08:57:35;3.20;99.90
56308;DHT22;42217;50.422;7.210;2022-11-20T09:00:05;3.20;99.90
56308;DHT22;42217;50.422;7.210;2022-11-20T09:02:31;3.30;99.90
56308;DHT22;42217;50.422;7.210;2022-11-20T09:04:58;3.30;99.90
56308;DHT22;42217;50.422;7.210;2022-11-20T09:07:23;3.30;99.90
56308;DHT22;42217;50.422;7.210;2022-11-20T09:09:49;3.30;99.90
56308;DHT22;42217;50.422;7.210;2022-11-20T09:12:15;3.40;99.90
56308;DHT22;42217;50.422;7.210;2022-11-20T09:14:40;3.50;99.90
56308;DHT22;42217;50.422;7.210;2022-11-20T09:17:06;3.60;99.90
56308;DHT22;42217;50.422;7.210;2022-11-20T09:19:33;3.70;99.90
56308;DHT22;42217;50.422;7.210;2022-11-20T09:21:59;3.80;99.90
56308;DHT22;42217;50.422;7.210;2022-11-20T09:24:26;3.90;99.90
56308;DHT22;42217;50.422;7.210;2022-11-20T09:26:51;3.90;99.90
56308;DHT22;42217;50.422;7.210;2022-11-20T09:29:17;4.00;99.90
56308;DHT22;42217;50.422;7.210;2022-11-20T09:31:43;4.00;99.90
56308;DHT22;42217;50.422;7.210;2022-11-20T09:34:08;4.00;99.90
56308;DHT22;42217;50.422;7.210;2022-11-20T09:36:35;4.10;99.90
56308;DHT22;42217;50.422;7.210;2022-11-20T09:39:01;4.10;99.90
56308;DHT22;42217;50.422;7.210;2022-11-20T09:44:38;4.50;99.90
56308;DHT22;42217;50.422;7.210;2022-11-20T09:55:24;4.70;99.90
56308;DHT22;42217;50.422;7.210;2022-11-20T09:57:51;4.90;99.90
56308;DHT22;42217;50.422;7.210;2022-11-20T10:00:18;5.20;99.90
56308;DHT22;42217;50.422;7.210;2022-11-20T10:03:02;5.20;99.90
56308;DHT22;42217;50.422;7.210;2022-11-20T10:17:19;6.00;99.90
56308;DHT22;42217;50.422;7.210;2022-11-20T10:22:21;6.40;99.90
56308;DHT22;42217;50.422;7.210;2022-11-20T10:25:01;6.60;99.90
56308;DHT22;42217;50.422;7.210;2022-11-20T10:30:15;6.90;99.90
56308;DHT22;42217;50.422;7.210;2022-11-20T10:32:45;7.40;99.90
56308;DHT22;42217;50.422;7.210;2022-11-20T10:35:21;7.80;99.90
56308;DHT22;42217;50.422;7.210;2022-11-20T10:37:59;7.90;99.90
56308;DHT22;42217;50.422;7.210;2022-11-20T10:40:35;7.70;99.90
56308;DHT22;42217;50.422;7.210;2022-11-20T10:46:10;7.50;99.90
56308;DHT22;42217;50.422;7.210;2022-11-20T10:48:38;7.40;99.90
56308;DHT22;42217;50.422;7.210;2022-11-20T10:54:18;7.20;99.90
56308;DHT22;42217;50.422;7.210;2022-11-20T10:56:51;7.10;99.90
56308;DHT22;42217;50.422;7.210;2022-11-20T11:02:39;7.30;99.90
56308;DHT22;42217;50.422;7.210;2022-11-20T11:07:51;7.00;99.90
56308;DHT22;42217;50.422;7.210;2022-11-20T11:10:26;6.90;99.90
56308;DHT22;42217;50.422;7.210;2022-11-20T11:12:53;6.90;99.90
56308;DHT22;42217;50.422;7.210;2022-11-20T11:15:45;6.90;99.90
56308;DHT22;42217;50.422;7.210;2022-11-20T11:18:11;7.30;99.90
56308;DHT22;42217;50.422;7.210;2022-11-20T11:20:50;7.30;99.90
56308;DHT22;42217;50.422;7.210;2022-11-20T11:23:43;7.40;99.90
56308;DHT22;42217;50.422;7.210;2022-11-20T11:26:22;7.30;99.90
56308;DHT22;42217;50.422;7.210;2022-11-20T11:31:28;7.00;99.90
56308;DHT22;42217;50.422;7.210;2022-11-20T11:34:07;7.00;99.90
56308;DHT22;42217;50.422;7.210;2022-11-20T11:36:36;6.90;99.90
56308;DHT22;42217;50.422;7.210;2022-11-20T11:39:04;6.90;99.90
56308;DHT22;42217;50.422;7.210;2022-11-20T11:41:34;7.10;99.90
56308;DHT22;42217;50.422;7.210;2022-11-20T11:44:17;7.20;99.90
56308;DHT22;42217;50.422;7.210;2022-11-20T11:47:03;7.30;99.90
56308;DHT22;42217;50.422;7.210;2022-11-20T11:49:29;7.20;99.90
56308;DHT22;42217;50.422;7.210;2022-11-20T11:52:16;7.20;99.90
56308;DHT22;42217;50.422;7.210;2022-11-20T11:54:55;7.10;99.90
56308;DHT22;42217;50.422;7.210;2022-11-20T12:00:11;7.10;99.90
56308;DHT22;42217;50.422;7.210;2022-11-20T12:05:24;7.40;99.90
56308;DHT22;42217;50.422;7.210;2022-11-20T12:08:05;7.60;99.90
56308;DHT22;42217;50.422;7.210;2022-11-20T12:10:40;7.70;99.90
56308;DHT22;42217;50.422;7.210;2022-11-20T12:15:59;8.00;99.90
56308;DHT22;42217;50.422;7.210;2022-11-20T12:18:26;8.20;99.90
56308;DHT22;42217;50.422;7.210;2022-11-20T12:21:18;8.20;99.90
56308;DHT22;42217;50.422;7.210;2022-11-20T12:39:49;7.60;99.90
56308;DHT22;42217;50.422;7.210;2022-11-20T12:59:42;7.30;99.90
56308;DHT22;42217;50.422;7.210;2022-11-20T13:05:03;7.50;99.90
56308;DHT22;42217;50.422;7.210;2022-11-20T13:07:32;7.50;99.90
56308;DHT22;42217;50.422;7.210;2022-11-20T13:09:59;7.50;99.90
56308;DHT22;42217;50.422;7.210;2022-11-20T13:12:44;7.50;99.90
56308;DHT22;42217;50.422;7.210;2022-11-20T13:15:52;7.20;99.90
56308;DHT22;42217;50.422;7.210;2022-11-20T13:18:17;7.00;99.90
56308;DHT22;42217;50.422;7.210;2022-11-20T13:20:45;6.70;99.90
56308;DHT22;42217;50.422;7.210;2022-11-20T13:23:22;6.60;99.90
56308;DHT22;42217;50.422;7.210;2022-11-20T13:25:48;6.60;99.90
56308;DHT22;42217;50.422;7.210;2022-11-20T13:30:52;6.60;99.90
56308;DHT22;42217;50.422;7.210;2022-11-20T13:33:32;6.70;99.90
56308;DHT22;42217;50.422;7.210;2022-11-20T13:36:21;6.60;99.90
56308;DHT22;42217;50.422;7.210;2022-11-20T13:38:49;6.50;99.90
56308;DHT22;42217;50.422;7.210;2022-11-20T13:41:36;6.40;99.90
56308;DHT22;42217;50.422;7.210;2022-11-20T13:44:14;6.30;99.90
56308;DHT22;42217;50.422;7.210;2022-11-20T13:46:47;6.10;99.90
56308;DHT22;42217;50.422;7.210;2022-11-20T13:51:48;6.00;99.90
56308;DHT22;42217;50.422;7.210;2022-11-20T13:54:43;6.00;99.90
56308;DHT22;42217;50.422;7.210;2022-11-20T14:00:14;6.10;99.90
56308;DHT22;42217;50.422;7.210;2022-11-20T14:02:40;6.40;99.90
56308;DHT22;42217;50.422;7.210;2022-11-20T14:05:19;6.50;99.90
56308;DHT22;42217;50.422;7.210;2022-11-20T14:07:47;6.60;99.90
56308;DHT22;42217;50.422;7.210;2022-11-20T14:10:26;6.70;99.90
56308;DHT22;42217;50.422;7.210;2022-11-20T14:12:52;6.80;99.90
56308;DHT22;42217;50.422;7.210;2022-11-20T14:15:32;6.90;99.90
56308;DHT22;42217;50.422;7.210;2022-11-20T14:17:59;6.90;99.90
56308;DHT22;42217;50.422;7.210;2022-11-20T14:20:29;7.10;99.90
56308;DHT22;42217;50.422;7.210;2022-11-20T14:22:56;7.10;99.90
56308;DHT22;42217;50.422;7.210;2022-11-20T14:25:26;7.00;99.90
56308;DHT22;42217;50.422;7.210;2022-11-20T14:27:59;7.10;99.90
56308;DHT22;42217;50.422;7.210;2022-11-20T14:30:46;7.20;99.90
56308;DHT22;42217;50.422;7.210;2022-11-20T14:33:13;7.00;99.90
56308;DHT22;42217;50.422;7.210;2022-11-20T14:35:47;7.00;99.90
56308;DHT22;42217;50.422;7.210;2022-11-20T14:38:16;7.10;99.90
56308;DHT22;42217;50.422;7.210;2022-11-20T14:40:42;7.10;99.90
56308;DHT22;42217;50.422;7.210;2022-11-20T14:45:55;7.00;99.90
56308;DHT22;42217;50.422;7.210;2022-11-20T14:48:26;7.00;99.90
56308;DHT22;42217;50.422;7.210;2022-11-20T14:50:53;7.00;99.90
56308;DHT22;42217;50.422;7.210;2022-11-20T14:53:23;7.00;99.90
56308;DHT22;42217;50.422;7.210;2022-11-20T14:55:56;7.00;99.90
56308;DHT22;42217;50.422;7.210;2022-11-20T14:58:27;6.90;99.90
56308;DHT22;42217;50.422;7.210;2022-11-20T15:01:05;6.90;99.90
56308;DHT22;42217;50.422;7.210;2022-11-20T15:03:36;6.80;99.90
56308;DHT22;42217;50.422;7.210;2022-11-20T15:06:03;6.80;99.90
56308;DHT22;42217;50.422;7.210;2022-11-20T15:08:28;6.70;99.90
56308;DHT22;42217;50.422;7.210;2022-11-20T15:10:55;6.50;99.90
56308;DHT22;42217;50.422;7.210;2022-11-20T15:13:34;6.40;99.90
56308;DHT22;42217;50.422;7.210;2022-11-20T15:16:02;6.20;99.90
56308;DHT22;42217;50.422;7.210;2022-11-20T15:18:36;6.10;99.90
56308;DHT22;42217;50.422;7.210;2022-11-20T15:21:07;6.10;99.90
56308;DHT22;42217;50.422;7.210;2022-11-20T15:23:35;6.00;99.90
56308;DHT22;42217;50.422;7.210;2022-11-20T15:26:01;5.80;99.90
56308;DHT22;42217;50.422;7.210;2022-11-20T15:28:50;5.60;99.90
56308;DHT22;42217;50.422;7.210;2022-11-20T15:31:18;5.50;99.90
56308;DHT22;42217;50.422;7.210;2022-11-20T15:33:46;5.40;99.90
56308;DHT22;42217;50.422;7.210;2022-11-20T15:36:12;5.40;99.90
56308;DHT22;42217;50.422;7.210;2022-11-20T15:38:38;5.30;99.90
56308;DHT22;42217;50.422;7.210;2022-11-20T15:41:04;5.30;99.90
56308;DHT22;42217;50.422;7.210;2022-11-20T15:43:30;5.30;99.90
56308;DHT22;42217;50.422;7.210;2022-11-20T15:46:05;5.30;99.90
56308;DHT22;42217;50.422;7.210;2022-11-20T15:48:35;5.30;99.90
56308;DHT22;42217;50.422;7.210;2022-11-20T15:53:38;5.30;99.90
56308;DHT22;42217;50.422;7.210;2022-11-20T15:56:04;5.30;99.90
56308;DHT22;42217;50.422;7.210;2022-11-20T15:58:30;5.40;99.90
56308;DHT22;42217;50.422;7.210;2022-11-20T16:00:56;5.30;99.90
56308;DHT22;42217;50.422;7.210;2022-11-20T16:03:22;5.40;99.90
56308;DHT22;42217;50.422;7.210;2022-11-20T16:05:48;5.40;99.90
56308;DHT22;42217;50.422;7.210;2022-11-20T16:08:14;5.40;99.90
56308;DHT22;42217;50.422;7.210;2022-11-20T16:10:40;5.40;99.90
56308;DHT22;42217;50.422;7.210;2022-11-20T16:13:28;5.50;99.90
56308;DHT22;42217;50.422;7.210;2022-11-20T16:16:19;5.50;99.90
56308;DHT22;42217;50.422;7.210;2022-11-20T16:18:46;5.50;99.90
56308;DHT22;42217;50.422;7.210;2022-11-20T16:21:12;5.50;99.90
56308;DHT22;42217;50.422;7.210;2022-11-20T16:23:41;5.50;99.90
56308;DHT22;42217;50.422;7.210;2022-11-20T16:26:15;5.60;99.90
56308;DHT22;42217;50.422;7.210;2022-11-20T16:28:43;5.60;99.90
56308;DHT22;42217;50.422;7.210;2022-11-20T16:31:14;5.50;99.90
56308;DHT22;42217;50.422;7.210;2022-11-20T16:33:40;5.50;99.90
56308;DHT22;42217;50.422;7.210;2022-11-20T16:36:11;5.50;99.90
56308;DHT22;42217;50.422;7.210;2022-11-20T16:38:37;5.40;99.90
56308;DHT22;42217;50.422;7.210;2022-11-20T16:41:03;5.50;99.90
56308;DHT22;42217;50.422;7.210;2022-11-20T16:43:29;5.40;99.90
56308;DHT22;42217;50.422;7.210;2022-11-20T16:45:55;5.50;99.90
56308;DHT22;42217;50.422;7.210;2022-11-20T16:48:20;5.40;99.90
56308;DHT22;42217;50.422;7.210;2022-11-20T16:50:52;5.50;99.90
56308;DHT22;42217;50.422;7.210;2022-11-20T16:53:21;5.50;99.90
56308;DHT22;42217;50.422;7.210;2022-11-20T16:55:47;5.40;99.90
56308;DHT22;42217;50.422;7.210;2022-11-20T16:58:13;5.40;99.90
56308;DHT22;42217;50.422;7.210;2022-11-20T17:00:45;5.40;99.90
56308;DHT22;42217;50.422;7.210;2022-11-20T17:03:11;5.40;99.90
56308;DHT22;42217;50.422;7.210;2022-11-20T17:05:38;5.40;99.90
56308;DHT22;42217;50.422;7.210;2022-11-20T17:08:04;5.30;99.90
56308;DHT22;42217;50.422;7.210;2022-11-20T17:10:30;5.40;99.90
56308;DHT22;42217;50.422;7.210;2022-11-20T17:12:56;5.50;99.90
56308;DHT22;42217;50.422;7.210;2022-11-20T17:15:22;5.50;99.90
56308;DHT22;42217;50.422;7.210;2022-11-20T17:17:47;5.50;99.90
56308;DHT22;42217;50.422;7.210;2022-11-20T17:20:13;5.50;99.90
56308;DHT22;42217;50.422;7.210;2022-11-20T17:22:39;5.50;99.90
56308;DHT22;42217;50.422;7.210;2022-11-20T17:25:07;5.60;99.90
56308;DHT22;42217;50.422;7.210;2022-11-20T17:27:33;5.50;99.90
56308;DHT22;42217;50.422;7.210;2022-11-20T17:29:59;5.50;99.90
56308;DHT22;42217;50.422;7.210;2022-11-20T17:32:25;5.50;99.90
56308;DHT22;42217;50.422;7.210;2022-11-20T17:34:52;5.50;99.90
56308;DHT22;42217;50.422;7.210;2022-11-20T17:37:18;5.40;99.90
56308;DHT22;42217;50.422;7.210;2022-11-20T17:39:46;5.50;99.90
56308;DHT22;42217;50.422;7.210;2022-11-20T17:42:13;5.50;99.90
56308;DHT22;42217;50.422;7.210;2022-11-20T17:44:51;5.50;99.90
56308;DHT22;42217;50.422;7.210;2022-11-20T17:47:17;5.50;99.90
56308;DHT22;42217;50.422;7.210;2022-11-20T17:49:43;5.40;99.90